Time;durP1;ratioP1;P1;durP2;ratioP2;P2;SDS_P1;SDS_P2;PMS_P1;PMS_P2;Temp;Humidity;BMP_temperature;BMP_pressure;BME280_temperature;BME280_humidity;BME280_pressure;Samples;Min_cycle;Max_cycle;Signal;HPM_P1;HPM_P2
2024/01/15 00:01:43;;;;;;;1.42;0.90;;;21.10;45.70;;;;;;10149518;28;20051;-46
2024/01/15 00:06:46;;;;;;;1.52;0.90;;;21.10;45.60;;;;;;10145155;28;20044;-46
2024/01/15 00:11:47;;;;;;;2.50;0.90;;;20.90;45.90;;;;;;10147043;28;20140;-50
2024/01/15 00:16:51;;;;;;;1.20;0.77;;;21.00;45.60;;;;;;10149452;28;20056;-46
2024/01/15 00:21:54;;;;;;;2.42;1.02;;;20.80;45.50;;;;;;10152100;28;20572;-47
2024/01/15 00:26:55;;;;;;;2.13;0.80;;;20.80;45.50;;;;;;10157136;28;20506;-49
2024/01/15 00:31:57;;;;;;;1.63;0.90;;;20.80;45.50;;;;;;10145321;28;20045;-47
2024/01/15 00:37:00;;;;;;;1.00;0.65;;;20.80;45.10;;;;;;10148163;28;20052;-47
2024/01/15 00:42:01;;;;;;;3.15;0.82;;;20.70;45.30;;;;;;10143000;28;20048;-46
2024/01/15 00:47:03;;;;;;;1.17;0.70;;;20.60;45.30;;;;;;10153939;28;20055;-49
2024/01/15 00:52:06;;;;;;;2.10;1.00;;;20.40;45.50;;;;;;10150227;28;20087;-48
2024/01/15 00:57:08;;;;;;;2.08;0.80;;;20.40;45.20;;;;;;10146229;28;20060;-48
2024/01/15 01:02:09;;;;;;;1.75;0.93;;;20.30;45.30;;;;;;10155276;28;20074;-51
2024/01/15 01:07:12;;;;;;;1.77;0.80;;;20.40;45.10;;;;;;10147758;28;20048;-49
2024/01/15 01:12:14;;;;;;;2.50;0.85;;;20.40;45.10;;;;;;10159276;28;20051;-49
2024/01/15 01:17:16;;;;;;;1.58;0.90;;;20.30;44.90;;;;;;10155553;28;20048;-49
2024/01/15 01:22:18;;;;;;;2.00;0.80;;;20.30;44.90;;;;;;10148116;28;20048;-54
2024/01/15 01:27:20;;;;;;;2.38;0.80;;;20.10;45.20;;;;;;10150790;28;20044;-48
2024/01/15 01:32:22;;;;;;;1.30;0.70;;;19.90;45.20;;;;;;10158969;28;20055;-48
2024/01/15 01:37:24;;;;;;;1.75;0.82;;;19.90;45.30;;;;;;10157233;28;20509;-50
2024/01/15 01:42:26;;;;;;;2.30;0.85;;;20.00;45.10;;;;;;10150742;28;20048;-48
2024/01/15 01:47:28;;;;;;;1.75;0.85;;;20.00;45.10;;;;;;10148805;28;20483;-49
2024/01/15 01:52:31;;;;;;;3.45;0.80;;;19.80;45.20;;;;;;10153810;28;20131;-49
2024/01/15 01:57:32;;;;;;;1.58;0.80;;;19.80;45.40;;;;;;10146634;28;20048;-48
2024/01/15 02:02:34;;;;;;;2.55;1.20;;;19.50;46.00;;;;;;10152104;28;20048;-52
2024/01/15 02:07:37;;;;;;;3.03;0.90;;;19.50;46.20;;;;;;10148432;28;20048;-48
2024/01/15 02:12:38;;;;;;;1.55;0.88;;;19.60;46.00;;;;;;10149516;28;20138;-51
2024/01/15 02:17:58;;;;;;;2.10;0.68;;;19.60;46.10;;;;;;10156443;28;20052;-48
2024/01/15 02:23:19;;;;;;;1.90;0.82;;;19.70;45.80;;;;;;10148630;28;20079;-48
2024/01/15 02:28:21;;;;;;;2.57;1.00;;;19.50;46.10;;;;;;10148991;28;20052;-48
2024/01/15 02:33:22;;;;;;;2.35;0.98;;;19.60;46.00;;;;;;10151321;28;20051;-48
2024/01/15 02:38:25;;;;;;;3.35;0.95;;;19.50;45.80;;;;;;10144800;28;20048;-49
2024/01/15 02:43:27;;;;;;;2.35;1.00;;;19.50;45.70;;;;;;10145513;28;20144;-48
2024/01/15 02:48:28;;;;;;;1.77;0.85;;;19.50;45.60;;;;;;10147972;28;20055;-50
2024/01/15 02:53:31;;;;;;;2.80;1.08;;;19.50;45.60;;;;;;10153053;28;20044;-50
2024/01/15 02:58:33;;;;;;;2.28;0.80;;;19.60;45.50;;;;;;10156757;28;20414;-48
2024/01/15 03:03:37;;;;;;;2.65;0.90;;;19.50;45.50;;;;;;10144672;28;20424;-45
2024/01/15 03:08:39;;;;;;;1.67;0.90;;;19.50;45.60;;;;;;10152717;28;20449;-48
2024/01/15 03:13:41;;;;;;;1.50;0.70;;;19.60;45.20;;;;;;10144090;28;20410;-51
2024/01/15 03:18:43;;;;;;;1.33;0.75;;;19.50;45.20;;;;;;10146566;28;20135;-48
2024/01/15 03:23:46;;;;;;;1.38;0.65;;;19.50;45.20;;;;;;10148166;28;20048;-48
2024/01/15 03:28:47;;;;;;;2.17;1.00;;;19.50;45.30;;;;;;10151199;28;20054;-48
2024/01/15 03:33:49;;;;;;;2.30;0.80;;;19.40;45.30;;;;;;10147305;28;20052;-48
2024/01/15 03:38:52;;;;;;;1.80;0.80;;;19.40;45.30;;;;;;10146425;28;20132;-50
2024/01/15 03:43:53;;;;;;;2.53;0.90;;;19.50;45.10;;;;;;10146481;28;20066;-53
2024/01/15 03:48:55;;;;;;;1.67;0.75;;;19.40;45.30;;;;;;10147839;28;20131;-50
2024/01/15 03:53:58;;;;;;;1.52;0.80;;;19.40;45.80;;;;;;10141057;28;20080;-48
2024/01/15 03:58:59;;;;;;;1.42;0.80;;;19.40;45.30;;;;;;10141519;28;20048;-48
2024/01/15 04:04:01;;;;;;;2.88;0.98;;;19.30;45.20;;;;;;10153697;28;20044;-48
2024/01/15 04:09:04;;;;;;;2.45;0.80;;;20.20;43.90;;;;;;10152315;28;20056;-48
2024/01/15 04:14:05;;;;;;;2.75;1.10;;;20.90;42.80;;;;;;10148413;28;20072;-51
2024/01/15 04:19:07;;;;;;;1.92;0.80;;;21.40;42.00;;;;;;10149599;28;20478;-48
2024/01/15 04:24:10;;;;;;;2.30;0.90;;;21.70;41.60;;;;;;10145396;28;20387;-47
2024/01/15 04:29:12;;;;;;;1.50;0.85;;;21.90;41.40;;;;;;10149878;28;20139;-48
2024/01/15 04:34:13;;;;;;;1.90;0.80;;;22.00;41.10;;;;;;10147687;28;20144;-50
2024/01/15 04:39:16;;;;;;;1.35;0.90;;;22.10;40.70;;;;;;10153572;28;20070;-48
2024/01/15 04:44:18;;;;;;;2.35;0.90;;;22.30;40.60;;;;;;10149223;28;20131;-45
2024/01/15 04:49:19;;;;;;;2.53;0.80;;;22.40;40.50;;;;;;10150873;28;20474;-50
2024/01/15 04:54:22;;;;;;;1.85;0.90;;;22.40;40.50;;;;;;10143842;28;20064;-46
2024/01/15 04:59:24;;;;;;;1.42;0.80;;;22.40;40.40;;;;;;10145494;28;20458;-46
2024/01/15 05:04:25;;;;;;;2.70;0.80;;;22.50;40.40;;;;;;10150948;28;20050;-45
2024/01/15 05:09:29;;;;;;;4.13;1.15;;;22.70;40.40;;;;;;10149830;28;20040;-45
2024/01/15 05:14:30;;;;;;;2.78;1.00;;;22.70;40.50;;;;;;10151560;28;20063;-49
2024/01/15 05:19:32;;;;;;;3.22;0.95;;;22.50;40.90;;;;;;10155845;28;20040;-47
2024/01/15 05:24:35;;;;;;;2.85;1.00;;;22.50;40.90;;;;;;10148818;28;20044;-46
2024/01/15 05:29:36;;;;;;;2.45;1.20;;;22.70;41.40;;;;;;10151146;28;20044;-47
2024/01/15 05:34:38;;;;;;;4.00;1.00;;;22.90;41.60;;;;;;10144577;28;20139;-49
2024/01/15 05:39:41;;;;;;;9.18;1.45;;;23.40;41.10;;;;;;10146439;28;20143;-49
2024/01/15 05:44:42;;;;;;;7.00;1.48;;;23.50;41.60;;;;;;10150343;28;20052;-47
2024/01/15 05:49:44;;;;;;;7.45;1.52;;;23.70;41.30;;;;;;10157758;28;20044;-47
2024/01/15 05:54:47;;;;;;;4.78;1.27;;;23.70;41.70;;;;;;10160992;28;20083;-48
2024/01/15 05:59:48;;;;;;;13.25;2.38;;;23.80;41.80;;;;;;10156978;28;20098;-49
2024/01/15 06:04:50;;;;;;;9.23;2.92;;;23.70;43.30;;;;;;10159251;28;20072;-48
2024/01/15 06:09:53;;;;;;;10.95;2.88;;;23.40;44.60;;;;;;10148508;28;20048;-47
2024/01/15 06:14:55;;;;;;;15.18;3.28;;;23.20;44.60;;;;;;10156588;28;20418;-52
2024/01/15 06:19:57;;;;;;;12.82;3.30;;;23.00;45.00;;;;;;10159146;28;20071;-48
2024/01/15 06:24:59;;;;;;;8.35;2.97;;;22.80;45.10;;;;;;10151903;28;20103;-47
2024/01/15 06:30:01;;;;;;;15.98;3.35;;;22.70;45.50;;;;;;10155247;28;20056;-53
2024/01/15 06:35:03;;;;;;;18.48;3.20;;;22.40;47.00;;;;;;10160818;28;20584;-50
2024/01/15 06:40:09;;;;;;;21.05;3.63;;;22.70;47.40;;;;;;10155089;28;20063;-50
2024/01/15 06:45:10;;;;;;;17.83;3.08;;;22.70;47.70;;;;;;10151731;28;20498;-50
2024/01/15 06:50:12;;;;;;;12.73;2.80;;;22.70;47.80;;;;;;10154077;28;20070;-49
2024/01/15 06:55:18;;;;;;;13.82;2.70;;;23.10;47.00;;;;;;10158062;28;20059;-49
2024/01/15 07:00:20;;;;;;;14.38;2.55;;;23.10;45.90;;;;;;10149101;28;20047;-50
2024/01/15 07:05:21;;;;;;;12.57;3.05;;;23.10;45.20;;;;;;10153590;28;20055;-50
2024/01/15 07:10:24;;;;;;;14.18;2.60;;;22.90;43.60;;;;;;10155886;28;20513;-49
2024/01/15 07:15:26;;;;;;;10.52;2.50;;;22.60;44.80;;;;;;10150156;28;20053;-50
2024/01/15 07:20:27;;;;;;;6.28;2.13;;;22.60;45.10;;;;;;10140979;28;20059;-53
2024/01/15 07:25:30;;;;;;;8.57;1.92;;;22.40;45.20;;;;;;10149943;28;20055;-49
2024/01/15 07:30:32;;;;;;;4.65;2.00;;;22.90;43.90;;;;;;10154154;28;20390;-52
2024/01/15 07:35:34;;;;;;;13.15;2.17;;;22.90;43.60;;;;;;10154458;28;20119;-49
2024/01/15 07:40:37;;;;;;;9.73;2.20;;;22.50;44.70;;;;;;10152892;28;20043;-49
2024/01/15 07:45:39;;;;;;;4.50;1.67;;;22.40;45.30;;;;;;10156455;28;20045;-50
2024/01/15 07:50:40;;;;;;;4.53;1.98;;;22.40;45.20;;;;;;10155961;28;20082;-53
2024/01/15 07:55:45;;;;;;;8.13;2.08;;;22.70;44.70;;;;;;10145565;28;20050;-50
2024/01/15 08:00:47;;;;;;;6.47;2.20;;;22.50;45.00;;;;;;10150883;28;20578;-51
2024/01/15 08:05:52;;;;;;;10.68;2.15;;;22.20;45.70;;;;;;10151352;28;20052;-53
2024/01/15 08:10:55;;;;;;;4.80;2.08;;;22.30;45.60;;;;;;10142983;28;20452;-50
2024/01/15 08:15:56;;;;;;;7.65;1.92;;;22.20;45.60;;;;;;10143769;28;20048;-53
2024/01/15 08:20:58;;;;;;;5.95;1.60;;;22.10;46.30;;;;;;10154745;28;20052;-52
2024/01/15 08:26:01;;;;;;;3.55;1.52;;;22.30;46.20;;;;;;10155467;28;20060;-49
2024/01/15 08:31:02;;;;;;;8.02;2.10;;;22.30;46.30;;;;;;10149310;28;20143;-52
2024/01/15 08:36:05;;;;;;;7.82;1.88;;;22.60;45.90;;;;;;10146187;28;20056;-46
2024/01/15 08:41:09;;;;;;;16.95;2.17;;;23.00;45.50;;;;;;10151488;28;20514;-50
2024/01/15 08:46:10;;;;;;;8.38;1.67;;;23.20;45.30;;;;;;10151203;28;20477;-48
2024/01/15 08:51:12;;;;;;;7.55;1.80;;;23.30;45.30;;;;;;10184002;23;20051;-64
2024/01/15 08:56:15;;;;;;;5.18;1.70;;;24.00;43.90;;;;;;10170572;28;20051;-64
2024/01/15 09:01:17;;;;;;;5.00;1.45;;;24.10;43.70;;;;;;10172462;28;20094;-64
2024/01/15 09:06:18;;;;;;;6.13;1.38;;;23.50;44.90;;;;;;10191938;28;20055;-64
2024/01/15 09:11:21;;;;;;;5.32;1.50;;;24.20;43.60;;;;;;10187544;28;20080;-64
2024/01/15 09:16:23;;;;;;;7.72;1.40;;;24.60;42.70;;;;;;10163446;28;20091;-66
2024/01/15 09:21:25;;;;;;;4.80;1.40;;;24.10;43.90;;;;;;10185019;28;20482;-64
2024/01/15 09:26:28;;;;;;;5.18;1.50;;;24.20;44.00;;;;;;10188535;28;20074;-64
2024/01/15 09:31:29;;;;;;;5.25;1.40;;;24.80;42.70;;;;;;10177691;28;20048;-64
2024/01/15 09:36:31;;;;;;;11.98;1.40;;;24.40;43.40;;;;;;10178973;29;20538;-63
2024/01/15 09:41:34;;;;;;;2.95;1.23;;;24.30;44.10;;;;;;10215032;28;20092;-64
2024/01/15 09:46:36;;;;;;;11.18;1.73;;;24.90;42.50;;;;;;10182014;29;20541;-64
2024/01/15 09:51:37;;;;;;;3.33;1.40;;;24.10;41.50;;;;;;10177395;28;20067;-64
2024/01/15 09:56:40;;;;;;;7.32;1.58;;;23.70;41.60;;;;;;10181009;28;20074;-63
2024/01/15 10:01:43;;;;;;;5.45;1.40;;;23.60;41.50;;;;;;10215423;28;20072;-64
2024/01/15 10:06:46;;;;;;;7.20;1.83;;;24.00;40.40;;;;;;10187282;28;20048;-63
2024/01/15 10:11:49;;;;;;;5.82;1.38;;;23.60;40.40;;;;;;10180481;28;20126;-64
2024/01/15 10:16:51;;;;;;;5.75;1.60;;;23.50;40.30;;;;;;10190436;28;20486;-64
2024/01/15 10:21:52;;;;;;;5.55;1.73;;;23.60;40.30;;;;;;10182890;28;20072;-63
2024/01/15 10:27:00;;;;;;;6.93;1.58;;;23.30;40.80;;;;;;10175698;28;20075;-64
2024/01/15 10:32:02;;;;;;;5.72;1.33;;;23.30;41.20;;;;;;10172666;28;20075;-64
2024/01/15 10:37:04;;;;;;;5.75;1.50;;;23.40;41.50;;;;;;10176364;28;20090;-63
2024/01/15 10:42:08;;;;;;;2.63;1.10;;;23.40;41.70;;;;;;10204700;28;20151;-62
2024/01/15 10:47:09;;;;;;;2.25;1.00;;;23.40;41.80;;;;;;10290943;28;20140;-64
2024/01/15 10:52:11;;;;;;;3.67;1.25;;;23.30;41.90;;;;;;10111166;28;20072;-64
2024/01/15 10:57:15;;;;;;;3.60;0.80;;;23.50;41.90;;;;;;10145047;28;20405;-63
2024/01/15 11:02:17;;;;;;;5.63;1.48;;;23.50;41.70;;;;;;10149354;28;20098;-64
2024/01/15 11:07:18;;;;;;;7.50;1.42;;;23.40;41.80;;;;;;10162787;28;20072;-64
2024/01/15 11:12:21;;;;;;;2.70;1.10;;;23.50;42.00;;;;;;10166558;28;20126;-64
2024/01/15 11:17:23;;;;;;;3.28;1.10;;;23.50;41.90;;;;;;10161712;29;20044;-63
2024/01/15 11:22:59;;;;;;;3.53;0.88;;;23.50;41.80;;;;;;10159524;28;20040;-64
2024/01/15 11:28:02;;;;;;;6.93;1.20;;;23.50;41.70;;;;;;10060271;28;20576;-63
2024/01/15 11:33:07;;;;;;;2.33;0.80;;;23.40;41.80;;;;;;10095424;29;20551;-63
2024/01/15 11:38:08;;;;;;;2.58;0.90;;;23.60;41.80;;;;;;10117811;29;20056;-63
2024/01/15 11:43:13;;;;;;;1.83;0.90;;;23.50;41.40;;;;;;10108823;29;20107;-63
2024/01/15 11:48:15;;;;;;;1.75;0.95;;;23.50;41.50;;;;;;10114019;29;20052;-64
2024/01/15 11:53:28;;;;;;;2.08;0.90;;;23.50;41.50;;;;;;10105212;29;20048;-63
2024/01/15 11:58:31;;;;;;;2.05;0.95;;;23.50;41.40;;;;;;10111078;28;20055;-63
2024/01/15 12:03:34;;;;;;;2.53;0.90;;;23.50;41.40;;;;;;10113362;28;20072;-63
2024/01/15 12:08:36;;;;;;;2.05;0.77;;;23.50;41.40;;;;;;10143870;28;20123;-64
2024/01/15 12:13:39;;;;;;;1.35;0.80;;;23.60;41.20;;;;;;10155147;28;20465;-64
2024/01/15 12:18:40;;;;;;;1.08;0.80;;;23.60;41.20;;;;;;10134822;29;20059;-62
2024/01/15 12:23:42;;;;;;;1.90;0.90;;;23.60;41.20;;;;;;10165735;28;20075;-63
2024/01/15 12:28:45;;;;;;;2.03;0.82;;;23.80;41.60;;;;;;10183398;28;20044;-63
2024/01/15 12:33:47;;;;;;;1.92;0.80;;;23.80;41.90;;;;;;10154599;28;20048;-64
2024/01/15 12:38:48;;;;;;;4.00;0.88;;;24.10;41.00;;;;;;10166119;28;20400;-62
2024/01/15 12:43:51;;;;;;;1.27;0.80;;;23.80;41.30;;;;;;10178366;28;20495;-63
2024/01/15 12:48:53;;;;;;;2.45;0.95;;;23.90;41.30;;;;;;10173450;28;20048;-62
2024/01/15 12:53:55;;;;;;;5.35;1.00;;;24.00;41.00;;;;;;10171203;28;20068;-62
2024/01/15 12:58:58;;;;;;;5.03;0.80;;;24.00;40.90;;;;;;10168601;28;20048;-63
2024/01/15 13:04:00;;;;;;;2.72;0.90;;;23.80;41.10;;;;;;10181153;28;20073;-63
2024/01/15 13:09:02;;;;;;;3.60;0.77;;;23.90;41.10;;;;;;10198803;28;20128;-63
2024/01/15 13:14:07;;;;;;;4.45;0.90;;;24.00;40.90;;;;;;10171837;28;20048;-62
2024/01/15 13:19:10;;;;;;;2.30;0.73;;;24.10;40.70;;;;;;10198618;28;20121;-62
2024/01/15 13:24:12;;;;;;;1.10;0.70;;;24.10;40.70;;;;;;10180156;28;20048;-64
2024/01/15 13:29:15;;;;;;;3.58;0.90;;;24.10;40.40;;;;;;10174837;28;20040;-66
2024/01/15 13:34:17;;;;;;;4.40;1.00;;;24.10;39.30;;;;;;10166823;28;20145;-64
2024/01/15 13:39:20;;;;;;;4.13;0.98;;;24.10;38.80;;;;;;10192360;28;20075;-64
2024/01/15 13:44:23;;;;;;;1.33;0.80;;;24.10;38.90;;;;;;10173346;28;20041;-64
2024/01/15 13:49:25;;;;;;;5.40;0.70;;;24.00;39.10;;;;;;10198583;28;20072;-64
2024/01/15 13:54:26;;;;;;;1.85;0.90;;;24.00;39.20;;;;;;10177726;28;20036;-62
2024/01/15 13:59:32;;;;;;;1.23;0.70;;;23.90;39.30;;;;;;10176245;28;20054;-62
2024/01/15 14:04:33;;;;;;;1.45;0.80;;;24.00;39.20;;;;;;10294675;28;20472;-62
2024/01/15 14:09:35;;;;;;;1.67;0.73;;;24.10;39.10;;;;;;10187795;28;20126;-61
2024/01/15 14:14:38;;;;;;;5.32;1.10;;;24.10;39.20;;;;;;10125244;29;20071;-61
2024/01/15 14:19:40;;;;;;;1.35;0.70;;;24.00;39.80;;;;;;10158130;29;20426;-61
2024/01/15 14:24:41;;;;;;;2.35;1.00;;;24.20;39.90;;;;;;10168110;28;20122;-61
2024/01/15 14:29:46;;;;;;;5.50;0.90;;;24.10;40.20;;;;;;10173054;28;20079;-61
2024/01/15 14:34:48;;;;;;;1.65;0.90;;;24.30;40.20;;;;;;10160852;28;20063;-58
2024/01/15 14:39:49;;;;;;;9.82;1.00;;;24.30;39.40;;;;;;10166997;28;20462;-62
2024/01/15 14:44:52;;;;;;;6.78;2.00;;;24.30;39.60;;;;;;10180319;28;20078;-62
2024/01/15 14:49:54;;;;;;;13.20;4.72;;;24.30;40.10;;;;;;10168916;28;20136;-62
2024/01/15 14:54:55;;;;;;;11.07;4.78;;;24.30;42.20;;;;;;10170155;28;20098;-62
2024/01/15 14:59:58;;;;;;;9.77;3.92;;;24.50;44.00;;;;;;10174623;28;20113;-61
2024/01/15 15:05:00;;;;;;;6.90;3.13;;;24.50;45.40;;;;;;10166900;28;20075;-62
2024/01/15 15:10:02;;;;;;;6.07;2.70;;;24.60;46.20;;;;;;10170547;28;20099;-61
2024/01/15 15:15:07;;;;;;;5.43;2.47;;;24.50;47.10;;;;;;10178429;28;20059;-58
2024/01/15 15:20:09;;;;;;;6.68;2.00;;;24.40;47.90;;;;;;10164130;28;20462;-57
2024/01/15 15:25:12;;;;;;;6.85;1.80;;;24.30;46.20;;;;;;10155352;29;20098;-67
2024/01/15 15:30:15;;;;;;;8.50;1.88;;;24.30;45.20;;;;;;10149869;28;20044;-67
2024/01/15 15:35:17;;;;;;;4.38;1.77;;;24.20;45.10;;;;;;10156309;29;20082;-66
2024/01/15 15:40:18;;;;;;;4.00;1.50;;;24.20;44.10;;;;;;10317135;28;20081;-66
2024/01/15 15:45:21;;;;;;;11.23;1.40;;;24.10;42.80;;;;;;10156047;28;20535;-67
2024/01/15 15:50:23;;;;;;;13.50;1.73;;;24.30;42.50;;;;;;10131038;29;20100;-67
2024/01/15 15:55:25;;;;;;;5.22;1.70;;;24.30;40.90;;;;;;10142690;28;20073;-67
2024/01/15 16:00:28;;;;;;;2.67;1.40;;;24.30;40.10;;;;;;10155218;28;20421;-67
2024/01/15 16:05:29;;;;;;;5.22;1.60;;;24.30;39.70;;;;;;10137690;28;20083;-59
2024/01/15 16:10:31;;;;;;;5.60;1.88;;;24.30;39.40;;;;;;10143598;28;20048;-66
2024/01/15 16:15:35;;;;;;;4.47;1.95;;;24.50;38.80;;;;;;10145569;28;20098;-66
2024/01/15 16:20:37;;;;;;;3.33;1.60;;;24.40;38.70;;;;;;10136847;28;20055;-67
2024/01/15 16:25:39;;;;;;;2.95;1.70;;;24.40;37.90;;;;;;10143475;29;20041;-66
2024/01/15 16:30:42;;;;;;;3.50;1.40;;;24.40;37.60;;;;;;10151549;28;20163;-67
2024/01/15 16:35:44;;;;;;;3.83;1.50;;;24.40;37.60;;;;;;10150478;28;20742;-67
2024/01/15 16:40:45;;;;;;;3.40;1.50;;;24.50;38.40;;;;;;10117309;28;20049;-60
2024/01/15 16:45:48;;;;;;;8.25;2.08;;;24.50;39.40;;;;;;10107392;28;20080;-61
2024/01/15 16:50:53;;;;;;;9.20;2.03;;;24.50;40.50;;;;;;10145387;28;20080;-61
2024/01/15 16:55:54;;;;;;;11.23;2.25;;;24.50;41.30;;;;;;10150257;28;20052;-61
2024/01/15 17:00:57;;;;;;;6.88;1.77;;;24.70;40.70;;;;;;10163171;28;20056;-65
2024/01/15 17:06:00;;;;;;;7.15;2.05;;;24.70;40.60;;;;;;10160999;28;20048;-64
2024/01/15 17:11:03;;;;;;;4.63;1.80;;;24.70;40.40;;;;;;10147990;28;20057;-64
2024/01/15 17:16:07;;;;;;;6.65;1.92;;;24.80;40.30;;;;;;10139068;29;20053;-64
2024/01/15 17:21:09;;;;;;;7.28;2.05;;;24.10;41.60;;;;;;10137017;29;20055;-64
2024/01/15 17:26:11;;;;;;;6.90;1.77;;;24.20;41.40;;;;;;10135665;29;20048;-64
2024/01/15 17:31:14;;;;;;;7.40;1.38;;;24.60;40.50;;;;;;10140133;29;20067;-66
2024/01/15 17:36:16;;;;;;;3.80;1.73;;;24.60;40.20;;;;;;10158567;29;20045;-59
2024/01/15 17:41:19;;;;;;;6.43;1.65;;;24.30;40.40;;;;;;10155786;29;20059;-59
2024/01/15 17:46:24;;;;;;;4.32;1.60;;;23.80;42.40;;;;;;10164037;28;20078;-61
2024/01/15 17:51:26;;;;;;;6.25;1.50;;;24.20;41.90;;;;;;10158728;28;20083;-60
2024/01/15 17:56:27;;;;;;;4.78;1.38;;;24.30;41.60;;;;;;10156731;29;20071;-60
2024/01/15 18:01:31;;;;;;;3.20;1.38;;;24.20;41.50;;;;;;10157462;29;20052;-62
2024/01/15 18:06:33;;;;;;;3.60;1.30;;;24.10;41.70;;;;;;10151819;29;20056;-60
2024/01/15 18:11:35;;;;;;;8.82;1.40;;;23.80;42.50;;;;;;10153846;28;20136;-60
2024/01/15 18:16:38;;;;;;;2.83;1.30;;;23.80;43.20;;;;;;10161337;28;20076;-61
2024/01/15 18:21:39;;;;;;;5.22;1.52;;;24.30;41.90;;;;;;10156110;29;20443;-61
2024/01/15 18:26:41;;;;;;;3.40;1.30;;;24.20;42.00;;;;;;10178057;29;20071;-60
2024/01/15 18:31:44;;;;;;;2.63;1.30;;;24.30;41.90;;;;;;10174065;29;20052;-60
2024/01/15 18:36:47;;;;;;;2.83;1.13;;;23.90;43.60;;;;;;10168486;28;20052;-60
2024/01/15 18:41:49;;;;;;;3.40;1.35;;;23.60;44.00;;;;;;10173036;29;20064;-61
2024/01/15 18:46:52;;;;;;;4.00;1.38;;;24.10;43.20;;;;;;10176421;29;20056;-61
2024/01/15 18:51:56;;;;;;;4.07;1.20;;;24.10;42.80;;;;;;10182213;28;20051;-58
2024/01/15 18:56:58;;;;;;;3.78;1.10;;;23.80;43.30;;;;;;10291605;28;20059;-61
2024/01/15 19:02:01;;;;;;;2.28;1.08;;;24.00;43.10;;;;;;10130752;28;20044;-63
2024/01/15 19:07:02;;;;;;;2.45;1.00;;;24.00;43.10;;;;;;10111447;29;20065;-65
2024/01/15 19:12:06;;;;;;;3.22;1.10;;;24.20;42.40;;;;;;10103977;29;20045;-63
2024/01/15 19:17:09;;;;;;;1.33;0.80;;;24.10;42.20;;;;;;10110361;29;20056;-63
2024/01/15 19:22:12;;;;;;;1.80;1.00;;;24.10;42.10;;;;;;10109616;29;20087;-64
2024/01/15 19:27:14;;;;;;;1.85;0.93;;;23.90;42.20;;;;;;10104742;29;20056;-64
2024/01/15 19:32:17;;;;;;;1.70;1.00;;;23.80;42.00;;;;;;10099253;29;20072;-63
2024/01/15 19:37:19;;;;;;;2.17;0.90;;;23.60;42.00;;;;;;10112914;29;20088;-63
2024/01/15 19:42:21;;;;;;;2.45;1.00;;;23.50;42.10;;;;;;10109038;28;20226;-63
2024/01/15 19:47:25;;;;;;;1.20;0.98;;;23.50;42.30;;;;;;10104211;29;20076;-63
2024/01/15 19:52:26;;;;;;;1.52;0.90;;;23.10;43.70;;;;;;10116201;28;20068;-61
2024/01/15 19:57:28;;;;;;;1.55;1.00;;;23.20;43.50;;;;;;10144691;29;20531;-62
2024/01/15 20:02:32;;;;;;;1.65;0.80;;;23.30;43.30;;;;;;10145722;28;20044;-63
2024/01/15 20:07:33;;;;;;;1.73;0.80;;;23.40;43.40;;;;;;10141049;28;20098;-62
2024/01/15 20:12:35;;;;;;;4.03;1.13;;;23.90;42.50;;;;;;10148484;28;20559;-63
2024/01/15 20:17:38;;;;;;;2.60;0.90;;;23.20;43.90;;;;;;10134418;28;20057;-63
2024/01/15 20:22:40;;;;;;;3.35;1.05;;;22.80;44.20;;;;;;10141595;22;20127;-63
2024/01/15 20:27:42;;;;;;;1.75;0.77;;;22.60;44.40;;;;;;10307524;28;20133;-63
2024/01/15 20:32:45;;;;;;;2.78;0.98;;;22.80;44.00;;;;;;10305385;28;20121;-66
2024/01/15 20:37:46;;;;;;;1.40;0.90;;;23.20;43.10;;;;;;10317042;28;20137;-64
2024/01/15 20:42:49;;;;;;;1.70;0.85;;;23.40;42.30;;;;;;10292537;28;20534;-64
2024/01/15 20:47:52;;;;;;;4.07;1.10;;;23.10;42.90;;;;;;10271394;28;20046;-64
2024/01/15 20:52:55;;;;;;;3.90;1.20;;;22.60;44.10;;;;;;10301559;28;20051;-64
2024/01/15 20:57:57;;;;;;;6.78;1.13;;;22.60;44.20;;;;;;10302153;28;20058;-64
2024/01/15 21:03:01;;;;;;;6.88;1.10;;;22.30;44.60;;;;;;10284667;28;20150;-64
2024/01/15 21:08:03;;;;;;;3.50;1.10;;;22.40;44.40;;;;;;10263360;28;20078;-64
2024/01/15 21:13:06;;;;;;;4.03;1.05;;;22.40;44.40;;;;;;10265445;28;20059;-64
2024/01/15 21:18:09;;;;;;;9.27;1.58;;;22.40;44.40;;;;;;10272683;28;20049;-64
2024/01/15 21:23:11;;;;;;;6.90;1.45;;;22.30;44.70;;;;;;10287622;28;20070;-62
2024/01/15 21:28:12;;;;;;;6.00;1.33;;;22.30;44.40;;;;;;10290758;28;20075;-62
2024/01/15 21:33:16;;;;;;;10.93;1.95;;;22.10;44.40;;;;;;10279898;28;20082;-62
2024/01/15 21:38:18;;;;;;;3.90;1.40;;;21.90;44.70;;;;;;10277348;28;20046;-62
2024/01/15 21:43:20;;;;;;;4.40;1.65;;;21.90;44.50;;;;;;10286037;28;20047;-62
2024/01/15 21:48:23;;;;;;;5.30;1.40;;;21.70;44.70;;;;;;10277928;28;20038;-62
2024/01/15 21:53:25;;;;;;;4.65;1.25;;;21.60;45.10;;;;;;10280044;28;20129;-62
2024/01/15 21:58:27;;;;;;;6.40;1.35;;;21.40;45.30;;;;;;10279993;28;20132;-62
2024/01/15 22:03:30;;;;;;;3.95;1.45;;;21.40;45.20;;;;;;10273742;28;20066;-61
2024/01/15 22:08:32;;;;;;;4.93;1.30;;;21.30;45.40;;;;;;10277364;28;20071;-62
2024/01/15 22:13:33;;;;;;;2.08;1.30;;;21.20;45.60;;;;;;10286762;28;20035;-62
2024/01/15 22:18:37;;;;;;;3.30;1.30;;;21.10;45.90;;;;;;10285037;28;20066;-62
2024/01/15 22:23:38;;;;;;;2.38;1.20;;;21.10;45.90;;;;;;10284581;28;20053;-62
2024/01/15 22:28:41;;;;;;;3.42;1.30;;;21.10;45.60;;;;;;10280000;28;20501;-62
2024/01/15 22:33:44;;;;;;;2.47;1.20;;;21.10;45.70;;;;;;10283919;28;20070;-62
2024/01/15 22:38:45;;;;;;;3.65;1.60;;;21.10;45.60;;;;;;10279470;28;20066;-62
2024/01/15 22:43:47;;;;;;;2.05;1.15;;;21.00;45.90;;;;;;10289622;28;20081;-60
2024/01/15 22:48:50;;;;;;;2.53;1.50;;;21.00;46.10;;;;;;10286262;28;20043;-61
2024/01/15 22:53:52;;;;;;;2.88;1.17;;;21.10;45.40;;;;;;10282351;28;20043;-62
2024/01/15 22:58:53;;;;;;;2.15;1.17;;;21.00;45.30;;;;;;10282675;28;20058;-62
2024/01/15 23:03:56;;;;;;;3.03;1.55;;;21.10;45.10;;;;;;10276518;28;20078;-62
2024/01/15 23:08:58;;;;;;;2.70;1.33;;;21.10;44.70;;;;;;10279825;28;20105;-62
2024/01/15 23:14:00;;;;;;;2.33;1.10;;;21.10;44.30;;;;;;10284541;28;20117;-62
2024/01/15 23:19:03;;;;;;;2.95;1.20;;;21.30;43.80;;;;;;10281879;28;20053;-61
2024/01/15 23:24:07;;;;;;;1.45;1.10;;;21.10;43.90;;;;;;10279366;28;20130;-62
2024/01/15 23:29:09;;;;;;;2.65;1.10;;;20.90;44.10;;;;;;10283019;28;20055;-62
2024/01/15 23:34:12;;;;;;;2.10;1.48;;;20.90;44.10;;;;;;10276699;28;20194;-61
2024/01/15 23:39:14;;;;;;;2.20;1.30;;;20.90;43.80;;;;;;10275847;28;20078;-62
2024/01/15 23:44:16;;;;;;;1.80;1.30;;;20.70;44.30;;;;;;10287664;28;20113;-63
2024/01/15 23:49:19;;;;;;;2.15;1.40;;;20.40;44.60;;;;;;10289767;28;20454;-63
2024/01/15 23:54:21;;;;;;;1.77;1.42;;;20.40;44.80;;;;;;10321395;28;20085;-63
2024/01/15 23:59:23;;;;;;;2.33;1.85;;;20.20;46.10;;;;;;10297706;28;20055;-63
